createdAt,value
2022-08-14T00:02:05.575Z,0.50
2022-08-14T00:04:42.014Z,0.50
2022-08-14T00:07:14.192Z,0.60
2022-08-14T00:09:55.667Z,0.65
2022-08-14T00:12:33.828Z,0.50
2022-08-14T00:15:43.758Z,0.68
2022-08-14T00:18:30.385Z,0.60
2022-08-14T00:21:03.140Z,0.52
2022-08-14T00:23:31.004Z,0.50
2022-08-14T00:26:06.598Z,0.60
2022-08-14T00:28:36.880Z,0.80
2022-08-14T00:31:08.121Z,0.70
2022-08-14T00:33:50.893Z,0.60
2022-08-14T00:36:36.152Z,0.50
2022-08-14T00:39:18.092Z,0.80
2022-08-14T00:41:47.670Z,0.70
2022-08-14T00:44:27.630Z,0.60
2022-08-14T00:47:00.427Z,0.65
2022-08-14T00:49:30.175Z,0.50
2022-08-14T00:51:58.059Z,0.65
2022-08-14T00:54:26.385Z,0.65
2022-08-14T00:56:55.706Z,0.63
2022-08-14T00:59:25.826Z,0.70
2022-08-14T01:01:58.333Z,0.60
2022-08-14T01:04:38.360Z,0.60
2022-08-14T01:07:20.794Z,0.55
2022-08-14T01:09:54.270Z,0.50
2022-08-14T01:12:26.769Z,0.65
2022-08-14T01:15:02.243Z,0.60
2022-08-14T01:17:52.053Z,0.50
2022-08-14T01:20:41.185Z,0.73
2022-08-14T01:23:16.311Z,0.65
2022-08-14T01:25:52.491Z,0.60
2022-08-14T01:28:46.785Z,0.70
2022-08-14T01:31:15.416Z,0.70
2022-08-14T01:34:07.411Z,0.70
2022-08-14T01:36:39.284Z,0.60
2022-08-14T01:39:15.885Z,0.80
2022-08-14T01:41:50.088Z,0.77
2022-08-14T01:44:32.089Z,0.70
2022-08-14T01:47:06.045Z,0.65
2022-08-14T01:49:35.752Z,0.95
2022-08-14T01:52:34.406Z,0.90
2022-08-14T01:55:01.587Z,0.68
2022-08-14T01:57:49.636Z,0.60
2022-08-14T02:00:18.958Z,0.88
2022-08-14T02:02:46.781Z,0.90
2022-08-14T02:05:14.806Z,1.00
2022-08-14T02:07:53.790Z,1.42
2022-08-14T02:10:26.220Z,1.15
2022-08-14T02:12:57.486Z,1.55
2022-08-14T02:15:27.069Z,2.50
2022-08-14T02:17:54.495Z,1.55
2022-08-14T02:20:23.496Z,2.67
2022-08-14T02:22:54.837Z,2.70
2022-08-14T02:25:23.368Z,2.72
2022-08-14T02:28:23.513Z,2.65
2022-08-14T02:30:45.442Z,3.15
2022-08-14T02:33:13.059Z,3.17
2022-08-14T02:35:43.657Z,2.92
2022-08-14T02:38:30.584Z,2.22
2022-08-14T02:41:02.578Z,2.47
2022-08-14T02:43:46.586Z,2.88
2022-08-14T02:46:20.314Z,3.05
2022-08-14T02:49:03.721Z,2.60
2022-08-14T02:51:36.709Z,2.58
2022-08-14T02:54:13.234Z,2.45
2022-08-14T02:57:15.273Z,2.72
2022-08-14T02:59:36.585Z,2.38
2022-08-14T03:02:04.654Z,1.92
2022-08-14T03:04:32.910Z,2.28
2022-08-14T03:07:07.373Z,2.15
2022-08-14T03:12:31.869Z,2.75
2022-08-14T03:15:13.994Z,2.25
2022-08-14T03:17:57.032Z,2.28
2022-08-14T03:20:30.520Z,2.00
2022-08-14T03:23:03.043Z,2.42
2022-08-14T03:25:37.384Z,2.50
2022-08-14T03:28:07.710Z,2.05
2022-08-14T03:30:42.664Z,2.72
2022-08-14T03:33:14.252Z,2.78
2022-08-14T03:36:05.264Z,2.80
2022-08-14T03:39:15.030Z,2.25
2022-08-14T03:41:24.076Z,2.47
2022-08-14T03:44:01.567Z,2.80
2022-08-14T03:46:54.494Z,2.08
2022-08-14T03:49:29.476Z,2.08
2022-08-14T03:52:17.774Z,2.13
2022-08-14T03:54:52.580Z,2.22
2022-08-14T03:57:22.785Z,2.08
2022-08-14T03:59:51.408Z,1.92
2022-08-14T04:02:32.745Z,1.95
2022-08-14T04:05:12.159Z,2.42
2022-08-14T04:08:00.225Z,2.05
2022-08-14T04:10:31.912Z,2.33
2022-08-14T04:13:03.634Z,2.40
2022-08-14T04:15:56.748Z,2.50
2022-08-14T04:18:20.815Z,3.05
2022-08-14T04:20:54.476Z,2.70
2022-08-14T04:23:31.858Z,2.45
2022-08-14T04:26:02.766Z,2.00
2022-08-14T04:29:01.542Z,2.50
2022-08-14T04:31:25.076Z,2.08
2022-08-14T04:34:08.111Z,2.58
2022-08-14T04:37:02.702Z,2.03
2022-08-14T04:39:56.635Z,2.55
2022-08-14T04:42:46.773Z,2.50
2022-08-14T04:45:15.976Z,2.90
2022-08-14T04:48:03.442Z,2.92
2022-08-14T04:50:37.862Z,2.50
2022-08-14T04:53:17.103Z,2.35
2022-08-14T04:55:51.858Z,2.72
2022-08-14T04:58:32.293Z,2.28
2022-08-14T05:01:02.238Z,2.10
2022-08-14T05:03:33.487Z,2.53
2022-08-14T05:06:04.041Z,3.08
2022-08-14T05:08:50.493Z,2.10
2022-08-14T05:11:22.123Z,2.70
2022-08-14T05:16:37.620Z,2.50
2022-08-14T05:19:25.258Z,2.40
2022-08-14T05:22:01.367Z,2.53
2022-08-14T05:24:43.789Z,2.63
2022-08-14T05:27:11.267Z,2.20
2022-08-14T05:29:38.583Z,2.42
2022-08-14T05:32:08.610Z,2.55
2022-08-14T05:34:36.154Z,2.20
2022-08-14T05:37:03.744Z,2.35
2022-08-14T05:39:34.350Z,2.85
2022-08-14T05:42:09.780Z,2.00
2022-08-14T05:44:49.503Z,1.83
2022-08-14T05:47:21.839Z,2.13
2022-08-14T05:49:49.161Z,1.75
2022-08-14T05:52:18.002Z,1.98
2022-08-14T05:54:45.817Z,1.98
2022-08-14T05:57:13.051Z,1.30
2022-08-14T05:59:42.052Z,1.48
2022-08-14T06:02:10.737Z,1.70
2022-08-14T06:04:39.545Z,2.22
2022-08-14T06:07:07.104Z,2.03
2022-08-14T06:09:36.042Z,1.92
2022-08-14T06:12:09.610Z,1.43
2022-08-14T06:14:38.813Z,1.73
2022-08-14T06:17:07.538Z,1.75
2022-08-14T06:19:35.037Z,2.38
2022-08-14T06:22:02.865Z,2.47
2022-08-14T06:24:35.014Z,2.03
2022-08-14T06:27:06.137Z,2.72
2022-08-14T06:29:37.993Z,1.88
2022-08-14T06:32:37.941Z,1.90
2022-08-14T06:35:04.194Z,2.00
2022-08-14T06:37:51.706Z,2.00
2022-08-14T06:40:25.481Z,1.88
2022-08-14T06:42:55.078Z,1.65
2022-08-14T06:45:26.142Z,1.55
2022-08-14T06:47:54.442Z,1.63
2022-08-14T06:50:28.103Z,1.17
2022-08-14T06:52:59.078Z,1.50
2022-08-14T06:55:28.178Z,1.13
2022-08-14T06:57:57.737Z,1.55
2022-08-14T07:00:30.743Z,1.25
2022-08-14T07:03:19.118Z,1.00
2022-08-14T07:05:55.301Z,1.80
2022-08-14T07:08:26.682Z,1.10
2022-08-14T07:11:00.186Z,1.17
2022-08-14T07:13:30.685Z,1.25
2022-08-14T07:16:00.631Z,1.10
2022-08-14T07:21:02.191Z,1.67
2022-08-14T07:23:31.272Z,1.00
2022-08-14T07:26:02.117Z,1.02
2022-08-14T07:28:35.953Z,1.10
2022-08-14T07:31:12.207Z,0.90
2022-08-14T07:33:45.664Z,1.20
2022-08-14T07:36:27.246Z,0.90
2022-08-14T07:39:03.573Z,1.27
2022-08-14T07:41:42.565Z,0.82
2022-08-14T07:44:29.039Z,0.77
2022-08-14T07:46:59.122Z,0.95
2022-08-14T07:49:27.467Z,0.85
2022-08-14T07:51:56.803Z,0.90
2022-08-14T07:54:30.235Z,1.80
2022-08-14T07:57:00.117Z,0.82
2022-08-14T07:59:42.523Z,0.75
2022-08-14T08:02:18.762Z,0.87
2022-08-14T08:04:58.945Z,0.60
2022-08-14T08:07:31.937Z,0.60
2022-08-14T08:10:01.104Z,0.77
2022-08-14T08:12:32.504Z,1.00
2022-08-14T08:15:02.800Z,0.70
2022-08-14T08:17:34.930Z,0.60
2022-08-14T08:20:12.663Z,0.60
2022-08-14T08:22:48.074Z,1.00
2022-08-14T08:25:17.986Z,0.70
2022-08-14T08:28:08.334Z,0.73
2022-08-14T08:30:49.245Z,0.70
2022-08-14T08:33:18.612Z,0.50
2022-08-14T08:35:50.666Z,0.60
2022-08-14T08:39:16.525Z,0.60
2022-08-14T08:41:11.419Z,0.80
2022-08-14T08:43:46.679Z,0.50
2022-08-14T08:46:24.168Z,0.50
2022-08-14T08:51:36.278Z,0.60
2022-08-14T08:54:05.823Z,0.60
2022-08-14T08:56:40.566Z,0.60
2022-08-14T08:59:22.686Z,0.68
2022-08-14T09:02:01.186Z,0.73
2022-08-14T09:04:45.191Z,0.82
2022-08-14T09:07:27.103Z,0.50
2022-08-14T09:10:00.190Z,0.63
2022-08-14T09:12:32.103Z,0.60
2022-08-14T09:15:09.105Z,0.80
2022-08-14T09:17:41.400Z,0.90
2022-08-14T09:20:11.738Z,1.15
2022-08-14T09:22:47.354Z,0.73
2022-08-14T09:25:19.711Z,0.50
2022-08-14T09:28:07.805Z,0.80
2022-08-14T09:30:38.845Z,0.70
2022-08-14T09:33:31.672Z,0.73
2022-08-14T09:36:25.647Z,0.77
2022-08-14T09:39:22.914Z,0.77
2022-08-14T09:42:33.302Z,0.68
2022-08-14T09:45:19.002Z,0.50
2022-08-14T09:47:57.602Z,0.47
2022-08-14T09:50:33.882Z,0.40
2022-08-14T09:53:04.812Z,0.65
2022-08-14T09:55:42.413Z,0.47
2022-08-14T09:58:19.822Z,0.50
2022-08-14T10:00:57.451Z,0.40
2022-08-14T10:03:37.489Z,0.40
2022-08-14T10:06:08.691Z,0.30
2022-08-14T10:08:51.042Z,0.40
2022-08-14T10:11:35.974Z,0.43
2022-08-14T10:14:29.517Z,0.40
2022-08-14T10:17:06.334Z,0.47
2022-08-14T10:19:36.499Z,0.30
2022-08-14T10:23:15.507Z,0.50
2022-08-14T10:25:00.015Z,0.50
2022-08-14T10:27:28.306Z,0.40
2022-08-14T10:30:01.235Z,0.30
2022-08-14T10:32:36.572Z,0.40
2022-08-14T10:35:14.517Z,0.52
2022-08-14T10:37:51.545Z,0.40
2022-08-14T10:40:43.445Z,0.45
2022-08-14T10:43:26.221Z,0.57
2022-08-14T10:46:21.614Z,0.68
2022-08-14T10:49:04.313Z,0.50
2022-08-14T10:51:36.193Z,0.35
2022-08-14T10:54:26.252Z,0.40
2022-08-14T10:56:57.759Z,0.40
2022-08-14T10:59:31.263Z,0.50
2022-08-14T11:02:02.832Z,0.40
2022-08-14T11:04:31.267Z,0.38
2022-08-14T11:06:59.373Z,0.30
2022-08-14T11:09:31.716Z,0.40
2022-08-14T11:12:34.336Z,0.40
2022-08-14T11:14:59.531Z,0.30
2022-08-14T11:17:33.021Z,0.35
2022-08-14T11:20:02.614Z,0.30
2022-08-14T11:23:03.397Z,0.30
2022-08-14T11:25:21.264Z,0.40
2022-08-14T11:27:50.647Z,0.32
2022-08-14T11:30:51.027Z,0.40
2022-08-14T11:33:23.526Z,0.30
2022-08-14T11:35:51.528Z,0.30
2022-08-14T11:38:21.654Z,0.40
2022-08-14T11:40:49.079Z,0.35
2022-08-14T11:43:16.626Z,0.40
2022-08-14T11:45:48.350Z,0.30
2022-08-14T11:49:01.989Z,0.25
2022-08-14T11:51:18.751Z,0.30
2022-08-14T11:54:13.652Z,0.30
2022-08-14T11:56:50.761Z,0.40
2022-08-14T11:59:26.279Z,0.40
2022-08-14T12:03:03.281Z,0.28
2022-08-14T12:05:00.317Z,0.30
2022-08-14T12:07:27.639Z,0.30
2022-08-14T12:09:59.790Z,0.30
2022-08-14T12:12:35.096Z,0.40
2022-08-14T12:15:07.076Z,0.30
2022-08-14T12:17:53.363Z,0.50
2022-08-14T12:20:33.696Z,0.35
2022-08-14T12:23:05.963Z,0.30
2022-08-14T12:25:35.077Z,0.40
2022-08-14T12:28:27.131Z,0.40
2022-08-14T12:30:59.605Z,0.20
2022-08-14T12:33:33.169Z,0.40
2022-08-14T12:36:08.410Z,0.30
2022-08-14T12:38:44.205Z,0.32
2022-08-14T12:41:20.554Z,0.30
2022-08-14T12:44:01.875Z,0.30
2022-08-14T12:46:35.955Z,0.30
2022-08-14T12:49:16.132Z,0.30
2022-08-14T12:51:44.885Z,0.30
2022-08-14T12:54:28.752Z,0.47
2022-08-14T12:57:09.290Z,0.60
2022-08-14T12:59:42.851Z,0.57
2022-08-14T13:02:26.189Z,0.63
2022-08-14T13:04:56.049Z,0.50
2022-08-14T13:07:32.264Z,0.68
2022-08-14T13:10:46.033Z,0.50
2022-08-14T13:15:47.577Z,2.38
2022-08-14T13:18:15.959Z,4.20
2022-08-14T13:20:48.031Z,4.43
2022-08-14T13:23:19.392Z,3.80
2022-08-14T13:25:58.948Z,3.03
2022-08-14T13:28:33.164Z,2.70
2022-08-14T13:31:11.186Z,1.50
2022-08-14T13:33:40.710Z,1.42
2022-08-14T13:36:23.941Z,1.48
2022-08-14T13:39:00.862Z,1.40
2022-08-14T13:41:31.707Z,1.33
2022-08-14T13:44:04.669Z,1.30
2022-08-14T13:46:35.260Z,1.83
2022-08-14T13:49:02.587Z,1.98
2022-08-14T13:51:36.045Z,2.65
2022-08-14T13:54:11.605Z,2.97
2022-08-14T13:56:40.838Z,1.88
2022-08-14T13:59:10.142Z,2.47
2022-08-14T14:01:43.834Z,1.95
2022-08-14T14:04:24.838Z,2.33
2022-08-14T14:06:53.253Z,1.95
2022-08-14T14:09:32.213Z,1.05
2022-08-14T14:12:00.721Z,0.80
2022-08-14T14:14:45.013Z,0.60
2022-08-14T14:17:16.489Z,0.43
2022-08-14T14:19:47.744Z,0.40
2022-08-14T14:23:00.953Z,0.40
2022-08-14T14:25:06.134Z,0.40
2022-08-14T14:27:40.904Z,0.30
2022-08-14T14:30:46.004Z,0.38
2022-08-14T14:33:05.329Z,0.28
2022-08-14T14:35:39.744Z,0.20
2022-08-14T14:38:09.023Z,0.23
2022-08-14T14:40:53.928Z,0.20
2022-08-14T14:43:27.421Z,0.20
2022-08-14T14:45:55.991Z,0.25
2022-08-14T14:48:27.087Z,0.20
2022-08-14T14:50:59.476Z,0.13
2022-08-14T14:53:31.241Z,0.20
2022-08-14T14:56:47.200Z,0.20
2022-08-14T14:58:54.974Z,0.20
2022-08-14T15:01:24.071Z,0.30
2022-08-14T15:03:54.124Z,0.22
2022-08-14T15:06:30.307Z,0.30
2022-08-14T15:09:01.984Z,0.30
2022-08-14T15:11:32.481Z,0.40
2022-08-14T15:14:01.325Z,0.30
2022-08-14T15:16:49.242Z,0.30
2022-08-14T15:19:18.596Z,0.30
2022-08-14T15:21:45.956Z,0.20
2022-08-14T15:24:20.627Z,0.20
2022-08-14T15:26:48.406Z,0.28
2022-08-14T15:29:17.232Z,0.60
2022-08-14T15:31:44.540Z,0.30
2022-08-14T15:34:44.040Z,0.20
2022-08-14T15:36:59.662Z,0.57
2022-08-14T15:39:29.514Z,0.40
2022-08-14T15:42:02.751Z,0.40
2022-08-14T15:44:36.507Z,0.50
2022-08-14T15:47:11.326Z,1.20
2022-08-14T15:49:39.753Z,0.30
2022-08-14T15:52:07.799Z,0.30
2022-08-14T15:54:35.600Z,0.30
2022-08-14T15:57:09.162Z,0.30
2022-08-14T15:59:56.783Z,0.40
2022-08-14T16:02:28.335Z,0.30
2022-08-14T16:04:56.334Z,0.30
2022-08-14T16:07:27.424Z,0.30
2022-08-14T16:10:18.592Z,0.20
2022-08-14T16:12:47.732Z,0.40
2022-08-14T16:15:16.711Z,0.40
2022-08-14T16:17:45.424Z,0.50
2022-08-14T16:20:41.024Z,0.40
2022-08-14T16:23:10.358Z,0.40
2022-08-14T16:25:42.324Z,0.40
2022-08-14T16:28:11.009Z,0.30
2022-08-14T16:33:27.890Z,0.50
2022-08-14T16:36:30.774Z,0.40
2022-08-14T16:39:00.761Z,0.30
2022-08-14T16:41:28.607Z,0.30
2022-08-14T16:44:04.749Z,0.40
2022-08-14T16:46:43.025Z,0.40
2022-08-14T16:49:13.748Z,0.40
2022-08-14T16:51:42.640Z,0.40
2022-08-14T16:54:20.891Z,0.30
2022-08-14T16:57:22.635Z,0.30
2022-08-14T16:59:52.563Z,0.30
2022-08-14T17:02:41.840Z,0.30
2022-08-14T17:05:38.318Z,0.40
2022-08-14T17:08:32.779Z,0.40
2022-08-14T17:11:10.073Z,0.38
2022-08-14T17:13:59.550Z,0.40
2022-08-14T17:16:37.525Z,0.30
2022-08-14T17:19:09.974Z,0.30
2022-08-14T17:21:46.808Z,0.40
2022-08-14T17:24:51.621Z,0.50
2022-08-14T17:27:10.406Z,0.40
2022-08-14T17:29:54.338Z,0.43
2022-08-14T17:32:29.622Z,0.30
2022-08-14T17:35:16.966Z,0.50
2022-08-14T17:37:46.438Z,0.52
2022-08-14T17:40:17.850Z,0.60
2022-08-14T17:43:00.893Z,0.40
2022-08-14T17:45:41.490Z,0.60
2022-08-14T17:49:10.031Z,0.50
2022-08-14T17:51:24.005Z,0.40
2022-08-14T17:54:03.079Z,0.40
2022-08-14T17:56:33.223Z,0.40
2022-08-14T17:59:06.014Z,0.40
2022-08-14T18:01:46.376Z,0.40
2022-08-14T18:04:25.017Z,0.50
2022-08-14T18:07:16.387Z,0.40
2022-08-14T18:09:57.334Z,0.50
2022-08-14T18:12:37.100Z,0.50
2022-08-14T18:15:16.431Z,0.50
2022-08-14T18:17:52.855Z,0.40
2022-08-14T18:21:41.218Z,0.50
2022-08-14T18:23:14.306Z,0.50
2022-08-14T18:25:52.787Z,0.60
2022-08-14T18:28:51.788Z,0.60
2022-08-14T18:31:20.890Z,0.50
2022-08-14T18:34:32.008Z,0.50
2022-08-14T18:37:14.245Z,0.38
2022-08-14T18:40:01.310Z,0.40
2022-08-14T18:42:34.893Z,0.30
2022-08-14T18:45:12.583Z,0.32
2022-08-14T18:50:32.501Z,0.40
2022-08-14T18:53:09.061Z,0.50
2022-08-14T18:55:52.695Z,0.35
2022-08-14T18:58:31.768Z,0.40
2022-08-14T19:01:04.285Z,0.40
2022-08-14T19:03:36.322Z,0.45
2022-08-14T19:06:08.146Z,0.55
2022-08-14T19:08:42.015Z,0.73
2022-08-14T19:11:32.786Z,0.70
2022-08-14T19:14:05.031Z,0.60
2022-08-14T19:16:43.108Z,0.80
2022-08-14T19:19:17.231Z,0.63
2022-08-14T19:21:57.530Z,0.80
2022-08-14T19:24:35.586Z,0.90
2022-08-14T19:27:26.062Z,0.70
2022-08-14T19:30:19.964Z,0.70
2022-08-14T19:32:55.908Z,0.80
2022-08-14T19:35:48.765Z,0.90
2022-08-14T19:38:44.258Z,0.85
2022-08-14T19:41:23.989Z,0.80
2022-08-14T19:44:32.205Z,1.00
2022-08-14T19:47:04.960Z,1.45
2022-08-14T19:50:25.196Z,0.90
2022-08-14T19:52:38.840Z,0.90
2022-08-14T19:55:34.119Z,1.08
2022-08-14T19:58:03.511Z,0.90
2022-08-14T20:00:31.285Z,0.70
2022-08-14T20:03:11.215Z,0.80
2022-08-14T20:05:45.472Z,0.93
2022-08-14T20:09:05.935Z,0.95
2022-08-14T20:11:20.923Z,1.00
2022-08-14T20:14:09.528Z,0.98
2022-08-14T20:16:41.789Z,1.02
2022-08-14T20:19:18.779Z,0.80
2022-08-14T20:22:04.346Z,1.15
2022-08-14T20:24:47.295Z,0.88
2022-08-14T20:27:33.343Z,1.10
2022-08-14T20:30:35.363Z,1.10
2022-08-14T20:33:07.960Z,1.10
2022-08-14T20:35:44.053Z,1.10
2022-08-14T20:38:30.670Z,1.20
2022-08-14T20:41:09.757Z,1.33
2022-08-14T20:43:59.796Z,1.33
2022-08-14T20:46:38.689Z,1.42
2022-08-14T20:49:19.375Z,1.20
2022-08-14T20:52:05.010Z,1.70
2022-08-14T20:54:36.911Z,1.67
2022-08-14T20:59:52.924Z,1.48
2022-08-14T21:02:50.079Z,1.20
2022-08-14T21:05:22.047Z,1.35
2022-08-14T21:08:01.064Z,1.60
2022-08-14T21:10:44.442Z,1.25
2022-08-14T21:14:08.791Z,1.48
2022-08-14T21:16:34.387Z,1.10
2022-08-14T21:18:58.856Z,1.20
2022-08-14T21:21:41.299Z,1.08
2022-08-14T21:24:40.077Z,0.90
2022-08-14T21:27:12.079Z,0.70
2022-08-14T21:29:41.165Z,0.77
2022-08-14T21:32:34.012Z,0.75
2022-08-14T21:35:04.086Z,0.70
2022-08-14T21:37:47.765Z,0.90
2022-08-14T21:40:42.462Z,0.70
2022-08-14T21:43:18.093Z,0.70
2022-08-14T21:45:54.156Z,0.65
2022-08-14T21:48:26.327Z,0.68
2022-08-14T21:51:02.279Z,0.70
2022-08-14T21:53:58.834Z,0.85
2022-08-14T21:56:38.926Z,0.57
2022-08-14T21:59:11.175Z,0.80
2022-08-14T22:02:01.271Z,0.40
2022-08-14T22:04:40.461Z,0.50
2022-08-14T22:07:17.460Z,0.60
2022-08-14T22:09:55.478Z,0.50
2022-08-14T22:12:57.454Z,0.63
2022-08-14T22:15:16.494Z,0.43
2022-08-14T22:17:45.164Z,0.50
2022-08-14T22:20:20.610Z,0.55
2022-08-14T22:22:48.410Z,0.40
2022-08-14T22:25:34.144Z,0.45
2022-08-14T22:28:05.850Z,0.30
2022-08-14T22:30:35.264Z,0.50
2022-08-14T22:33:05.855Z,0.43
2022-08-14T22:35:38.311Z,0.38
2022-08-14T22:38:37.107Z,0.40
2022-08-14T22:41:12.159Z,0.35
2022-08-14T22:43:41.796Z,0.40
2022-08-14T22:46:14.903Z,0.30
2022-08-14T22:48:48.518Z,0.40
2022-08-14T22:51:18.721Z,0.52
2022-08-14T22:53:48.675Z,0.40
2022-08-14T22:56:29.322Z,0.50
2022-08-14T22:59:09.596Z,0.30
2022-08-14T23:01:55.160Z,0.40
2022-08-14T23:04:35.546Z,0.43
2022-08-14T23:07:22.840Z,0.50
2022-08-14T23:09:57.728Z,0.40
2022-08-14T23:12:54.509Z,0.47
2022-08-14T23:15:24.727Z,0.45
2022-08-14T23:17:58.740Z,0.40
2022-08-14T23:20:29.531Z,0.40
2022-08-14T23:22:58.514Z,0.50
2022-08-14T23:25:57.313Z,0.50
2022-08-14T23:28:33.777Z,0.40
2022-08-14T23:31:11.947Z,0.40
2022-08-14T23:33:46.078Z,0.30
2022-08-14T23:36:28.262Z,0.40
2022-08-14T23:38:56.315Z,0.40
2022-08-14T23:41:23.923Z,0.50
2022-08-14T23:43:55.380Z,0.40
2022-08-14T23:46:34.579Z,0.50
2022-08-14T23:49:05.123Z,0.55
2022-08-14T23:51:36.440Z,0.50
2022-08-14T23:54:06.094Z,0.30
2022-08-14T23:57:03.106Z,0.60
2022-08-14T23:59:31.886Z,0.40
